createdAt,value
2018-05-26T00:00:36.166Z,0
2018-05-26T00:01:44.235Z,0
2018-05-26T00:02:52.291Z,0
2018-05-26T00:04:00.355Z,0
2018-05-26T00:05:08.434Z,0
2018-05-26T00:06:16.482Z,0
2018-05-26T00:07:24.560Z,0
2018-05-26T00:08:32.636Z,0
2018-05-26T00:09:40.695Z,0
2018-05-26T00:10:48.760Z,0
2018-05-26T00:11:56.831Z,0
2018-05-26T00:13:04.886Z,0
2018-05-26T00:14:12.950Z,0
2018-05-26T00:15:21.039Z,0
2018-05-26T00:16:29.088Z,0
2018-05-26T00:17:37.149Z,0
2018-05-26T00:18:45.223Z,0
2018-05-26T00:19:53.293Z,0
2018-05-26T00:21:01.361Z,0
2018-05-26T00:22:09.420Z,0
2018-05-26T00:23:17.497Z,0
2018-05-26T00:24:25.572Z,0
2018-05-26T00:25:33.668Z,0
2018-05-26T00:26:41.698Z,0
2018-05-26T00:27:49.744Z,0
2018-05-26T00:28:57.833Z,0
2018-05-26T00:30:05.901Z,0
2018-05-26T00:31:13.957Z,0
2018-05-26T00:32:22.027Z,0
2018-05-26T00:33:30.066Z,0
2018-05-26T00:34:38.159Z,0
2018-05-26T00:35:46.226Z,0
2018-05-26T00:36:54.289Z,0
2018-05-26T00:38:02.357Z,0
2018-05-26T00:39:10.418Z,0
2018-05-26T00:40:18.479Z,0
2018-05-26T00:41:26.536Z,0
2018-05-26T00:42:34.619Z,0
2018-05-26T00:43:42.682Z,0
2018-05-26T00:44:50.758Z,0
2018-05-26T00:45:58.808Z,0
2018-05-26T00:47:06.884Z,0
2018-05-26T00:48:14.949Z,0
2018-05-26T00:49:23.016Z,0
2018-05-26T00:50:31.082Z,0
2018-05-26T00:51:39.138Z,0
2018-05-26T00:52:47.263Z,0
2018-05-26T00:53:55.270Z,0
2018-05-26T00:55:03.367Z,0
2018-05-26T00:56:11.411Z,0
2018-05-26T00:57:19.436Z,0
2018-05-26T00:58:27.537Z,0
2018-05-26T00:59:35.616Z,0
2018-05-26T01:00:43.670Z,0
2018-05-26T01:01:51.755Z,0
2018-05-26T01:02:59.781Z,0
2018-05-26T01:04:07.862Z,0
2018-05-26T01:05:15.945Z,0
2018-05-26T01:06:24.017Z,0
2018-05-26T01:07:32.069Z,0
2018-05-26T01:08:40.121Z,0
2018-05-26T01:09:48.219Z,0
2018-05-26T01:10:56.282Z,0
2018-05-26T01:12:04.339Z,0
2018-05-26T01:13:12.404Z,0
2018-05-26T01:14:20.459Z,0
2018-05-26T01:15:28.534Z,0
2018-05-26T01:16:36.596Z,0
2018-05-26T01:17:44.661Z,0
2018-05-26T01:18:52.731Z,0
2018-05-26T01:20:00.801Z,0
2018-05-26T01:21:08.874Z,0
2018-05-26T01:22:16.918Z,0
2018-05-26T01:23:24.992Z,0
2018-05-26T01:24:33.075Z,0
2018-05-26T01:25:41.142Z,0
2018-05-26T01:26:49.184Z,0
2018-05-26T01:27:57.264Z,0
2018-05-26T01:29:05.330Z,0
2018-05-26T01:30:13.401Z,0
2018-05-26T01:31:21.459Z,0
2018-05-26T01:32:29.523Z,0
2018-05-26T01:33:37.596Z,0
2018-05-26T01:34:45.652Z,0
2018-05-26T01:35:53.715Z,0
2018-05-26T01:37:01.791Z,0
2018-05-26T01:38:09.834Z,0
2018-05-26T01:39:17.915Z,0
2018-05-26T01:40:25.995Z,0
2018-05-26T01:41:34.061Z,0
2018-05-26T01:42:42.122Z,0
2018-05-26T01:43:50.172Z,0
2018-05-26T01:44:58.257Z,0
2018-05-26T01:46:06.319Z,0
2018-05-26T01:47:14.383Z,0
2018-05-26T01:48:22.451Z,0
2018-05-26T01:49:30.527Z,0
2018-05-26T01:50:38.587Z,0
2018-05-26T01:51:46.652Z,0
2018-05-26T01:52:54.711Z,0
2018-05-26T01:54:02.775Z,0
2018-05-26T01:55:10.843Z,0
2018-05-26T01:56:18.916Z,0
2018-05-26T01:57:26.987Z,0
2018-05-26T01:58:35.040Z,0
2018-05-26T01:59:43.113Z,0
2018-05-26T02:00:51.191Z,0
2018-05-26T02:01:59.249Z,0
2018-05-26T02:03:07.326Z,0
2018-05-26T02:04:15.390Z,0
2018-05-26T02:05:23.507Z,0
2018-05-26T02:06:31.529Z,0
2018-05-26T02:07:39.560Z,0
2018-05-26T02:08:47.667Z,0
2018-05-26T02:09:55.723Z,0
2018-05-26T02:11:03.817Z,0
2018-05-26T02:12:11.859Z,0
2018-05-26T02:13:19.898Z,0
2018-05-26T02:14:27.994Z,0
2018-05-26T02:15:36.056Z,0
2018-05-26T02:16:44.126Z,0
2018-05-26T02:17:52.191Z,0
2018-05-26T02:19:00.250Z,0
2018-05-26T02:20:08.336Z,0
2018-05-26T02:21:16.409Z,0
2018-05-26T02:22:24.459Z,0
2018-05-26T02:23:32.525Z,0
2018-05-26T02:24:40.606Z,0
2018-05-26T02:25:48.665Z,0
2018-05-26T02:26:56.735Z,0
2018-05-26T02:28:04.812Z,0
2018-05-26T02:29:12.864Z,0
2018-05-26T02:30:20.910Z,0
2018-05-26T02:31:28.996Z,0
2018-05-26T02:32:37.066Z,0
2018-05-26T02:33:45.122Z,0
2018-05-26T02:34:53.195Z,0
2018-05-26T02:36:01.263Z,0
2018-05-26T02:37:09.315Z,0
2018-05-26T02:38:17.405Z,0
2018-05-26T02:39:25.468Z,0
2018-05-26T02:40:33.522Z,0
2018-05-26T02:41:41.592Z,0
2018-05-26T02:42:49.646Z,0
2018-05-26T02:43:57.734Z,0
2018-05-26T02:45:05.794Z,0
2018-05-26T02:46:13.860Z,0
2018-05-26T02:47:21.921Z,0
2018-05-26T02:48:29.972Z,0
2018-05-26T02:49:38.052Z,0
2018-05-26T02:50:46.122Z,0
2018-05-26T02:51:54.184Z,0
2018-05-26T02:53:02.267Z,0
2018-05-26T02:54:10.328Z,0
2018-05-26T02:55:18.407Z,0
2018-05-26T02:56:26.458Z,4
2018-05-26T02:57:34.529Z,4
2018-05-26T02:58:42.600Z,0
2018-05-26T02:59:50.659Z,0
2018-05-26T03:00:58.734Z,4
2018-05-26T03:02:06.795Z,4
2018-05-26T03:03:14.854Z,4
2018-05-26T03:04:22.931Z,8
2018-05-26T03:05:30.984Z,4
2018-05-26T03:06:39.040Z,4
2018-05-26T03:07:47.127Z,12
2018-05-26T03:08:55.186Z,8
2018-05-26T03:10:03.265Z,12
2018-05-26T03:11:11.324Z,16
2018-05-26T03:12:19.453Z,16
2018-05-26T03:13:27.470Z,20
2018-05-26T03:14:35.521Z,24
2018-05-26T03:15:43.588Z,28
2018-05-26T03:16:51.664Z,36
2018-05-26T03:17:59.692Z,40
2018-05-26T03:19:07.791Z,48
2018-05-26T03:20:15.844Z,56
2018-05-26T03:21:23.925Z,64
2018-05-26T03:22:31.975Z,76
2018-05-26T03:23:40.032Z,84
2018-05-26T03:24:48.112Z,100
2018-05-26T03:25:56.187Z,112
2018-05-26T03:27:04.267Z,124
2018-05-26T03:28:12.322Z,132
2018-05-26T03:29:20.379Z,140
2018-05-26T03:30:28.457Z,152
2018-05-26T03:31:36.518Z,164
2018-05-26T03:32:44.587Z,180
2018-05-26T03:33:52.628Z,200
2018-05-26T03:35:00.717Z,220
2018-05-26T03:36:08.787Z,240
2018-05-26T03:37:16.828Z,264
2018-05-26T03:38:24.924Z,288
2018-05-26T03:39:32.977Z,316
2018-05-26T03:40:41.046Z,344
2018-05-26T03:41:49.123Z,376
2018-05-26T03:42:57.188Z,420
2018-05-26T03:44:05.249Z,460
2018-05-26T03:45:13.325Z,504
2018-05-26T03:46:21.393Z,552
2018-05-26T03:47:29.429Z,600
2018-05-26T03:48:37.515Z,652
2018-05-26T03:49:45.587Z,712
2018-05-26T03:50:53.661Z,768
2018-05-26T03:52:01.714Z,832
2018-05-26T03:53:09.759Z,896
2018-05-26T03:54:17.858Z,956
2018-05-26T03:55:25.913Z,1024
2018-05-26T03:56:33.986Z,1092
2018-05-26T03:57:42.047Z,1160
2018-05-26T03:58:50.082Z,1224
2018-05-26T03:59:58.177Z,1308
2018-05-26T04:01:06.233Z,1400
2018-05-26T04:02:14.309Z,1504
2018-05-26T04:03:22.393Z,1608
2018-05-26T04:04:30.453Z,1720
2018-05-26T04:05:38.508Z,1836
2018-05-26T04:06:46.570Z,1956
2018-05-26T04:07:54.644Z,2076
2018-05-26T04:09:02.714Z,2180
2018-05-26T04:10:10.771Z,2280
2018-05-26T04:11:18.854Z,2380
2018-05-26T04:12:26.919Z,2480
2018-05-26T04:13:34.983Z,2580
2018-05-26T04:14:43.038Z,2704
2018-05-26T04:15:51.104Z,2852
2018-05-26T04:16:59.175Z,3008
2018-05-26T04:18:07.241Z,3140
2018-05-26T04:19:15.300Z,3288
2018-05-26T04:20:23.391Z,3464
2018-05-26T04:21:31.448Z,3660
2018-05-26T04:22:39.484Z,3852
2018-05-26T04:23:47.595Z,4028
2018-05-26T04:24:55.692Z,4176
2018-05-26T04:26:03.715Z,4300
2018-05-26T04:27:11.781Z,4404
2018-05-26T04:28:19.879Z,4500
2018-05-26T04:29:27.917Z,4560
2018-05-26T04:30:35.978Z,4628
2018-05-26T04:31:44.036Z,4680
2018-05-26T04:32:52.120Z,4740
2018-05-26T04:34:00.157Z,4784
2018-05-26T04:35:08.246Z,4800
2018-05-26T04:36:16.305Z,4836
2018-05-26T04:37:24.388Z,4832
2018-05-26T04:38:32.445Z,4816
2018-05-26T04:39:40.511Z,4772
2018-05-26T04:40:48.584Z,4724
2018-05-26T04:41:56.661Z,4680
2018-05-26T04:43:04.725Z,4640
2018-05-26T04:44:12.793Z,4620
2018-05-26T04:45:20.847Z,4568
2018-05-26T04:46:28.918Z,4520
2018-05-26T04:47:36.989Z,4496
2018-05-26T04:48:45.054Z,4504
2018-05-26T04:49:53.135Z,4536
2018-05-26T04:51:01.251Z,4576
2018-05-26T04:52:09.254Z,4664
2018-05-26T04:53:17.324Z,4760
2018-05-26T04:54:25.400Z,4844
2018-05-26T04:55:33.462Z,4932
2018-05-26T04:56:41.551Z,5056
2018-05-26T04:57:49.580Z,5228
2018-05-26T04:58:57.884Z,5436
2018-05-26T05:00:05.744Z,5832
2018-05-26T05:01:13.809Z,7636
2018-05-26T05:02:21.880Z,9856
2018-05-26T05:03:29.922Z,11032
2018-05-26T05:04:38.005Z,9836
2018-05-26T05:05:46.089Z,9032
2018-05-26T05:06:54.131Z,7484
2018-05-26T05:08:02.214Z,5452
2018-05-26T05:09:10.270Z,4988
2018-05-26T05:10:18.348Z,4852
2018-05-26T05:11:26.427Z,4708
2018-05-26T05:12:34.485Z,4512
2018-05-26T05:13:42.548Z,4388
2018-05-26T05:14:50.787Z,4320
2018-05-26T05:15:58.700Z,4264
2018-05-26T05:17:06.760Z,4228
2018-05-26T05:18:14.830Z,4196
2018-05-26T05:19:22.912Z,4020
2018-05-26T05:20:30.947Z,3944
2018-05-26T05:21:39.038Z,3920
2018-05-26T05:22:47.103Z,3888
2018-05-26T05:23:55.166Z,3876
2018-05-26T05:25:03.254Z,3880
2018-05-26T05:26:11.299Z,3900
2018-05-26T05:27:19.358Z,3928
2018-05-26T05:28:27.448Z,3960
2018-05-26T05:29:35.502Z,4008
2018-05-26T05:30:43.575Z,4072
2018-05-26T05:31:51.633Z,4176
2018-05-26T05:32:59.694Z,4328
2018-05-26T05:34:07.779Z,4528
2018-05-26T05:35:15.861Z,4700
2018-05-26T05:36:23.917Z,4680
2018-05-26T05:37:32.027Z,4648
2018-05-26T05:38:40.017Z,4636
2018-05-26T05:39:48.135Z,4668
2018-05-26T05:40:56.190Z,4696
2018-05-26T05:42:04.405Z,4748
2018-05-26T05:43:12.325Z,4856
2018-05-26T05:44:20.385Z,5068
2018-05-26T05:45:28.477Z,5264
2018-05-26T05:46:36.560Z,5376
2018-05-26T05:47:44.601Z,5360
2018-05-26T05:48:52.663Z,5320
2018-05-26T05:50:00.728Z,5280
2018-05-26T05:51:08.792Z,5256
2018-05-26T05:52:16.881Z,5220
2018-05-26T05:53:24.931Z,5180
2018-05-26T05:54:33.004Z,5176
2018-05-26T05:55:41.066Z,5152
2018-05-26T05:56:49.146Z,5124
2018-05-26T05:57:57.216Z,5108
2018-05-26T05:59:05.276Z,5116
2018-05-26T06:00:13.353Z,5152
2018-05-26T06:01:21.412Z,5092
2018-05-26T06:02:29.463Z,5112
2018-05-26T06:03:37.560Z,5136
2018-05-26T06:04:45.610Z,5192
2018-05-26T06:05:53.711Z,5192
2018-05-26T06:07:01.763Z,5196
2018-05-26T06:08:09.797Z,5196
2018-05-26T06:09:17.877Z,5212
2018-05-26T06:10:25.965Z,5348
2018-05-26T06:11:34.054Z,5472
2018-05-26T06:12:42.112Z,5444
2018-05-26T06:13:50.142Z,5476
2018-05-26T06:14:58.295Z,5508
2018-05-26T06:16:06.302Z,5516
2018-05-26T06:17:14.410Z,5572
2018-05-26T06:18:22.443Z,5584
2018-05-26T06:19:30.505Z,5604
2018-05-26T06:20:38.587Z,5600
2018-05-26T06:21:46.713Z,5644
2018-05-26T06:22:54.722Z,5644
2018-05-26T06:24:02.824Z,5644
2018-05-26T06:25:10.859Z,5700
2018-05-26T06:26:18.968Z,5716
2018-05-26T06:27:27.019Z,5768
2018-05-26T06:28:35.059Z,5812
2018-05-26T06:29:43.151Z,5888
2018-05-26T06:30:51.220Z,5980
2018-05-26T06:31:59.275Z,6076
2018-05-26T06:33:07.348Z,6152
2018-05-26T06:34:15.408Z,6176
2018-05-26T06:35:23.521Z,6228
2018-05-26T06:36:31.564Z,6280
2018-05-26T06:37:39.825Z,6344
2018-05-26T06:38:47.693Z,6332
2018-05-26T06:39:55.770Z,6404
2018-05-26T06:41:03.847Z,6480
2018-05-26T06:42:11.894Z,6544
2018-05-26T06:43:19.952Z,6628
2018-05-26T06:44:28.061Z,6820
2018-05-26T06:45:36.130Z,6892
2018-05-26T06:46:44.181Z,7024
2018-05-26T06:47:52.244Z,7436
2018-05-26T06:49:00.319Z,7376
2018-05-26T06:50:08.381Z,7564
2018-05-26T06:51:16.489Z,7828
2018-05-26T06:52:24.935Z,8072
2018-05-26T06:53:32.600Z,8260
2018-05-26T06:54:40.654Z,8492
2018-05-26T06:55:48.775Z,8700
2018-05-26T06:56:56.782Z,8984
2018-05-26T06:58:04.957Z,9016
2018-05-26T06:59:13.065Z,9588
2018-05-26T07:00:21.037Z,11088
2018-05-26T07:01:29.082Z,12120
2018-05-26T07:02:37.153Z,10188
2018-05-26T07:03:45.228Z,10740
2018-05-26T07:04:53.290Z,10516
2018-05-26T07:06:01.362Z,12620
2018-05-26T07:07:09.419Z,16896
2018-05-26T07:08:17.495Z,15176
2018-05-26T07:09:25.579Z,12036
2018-05-26T07:10:33.653Z,13576
2018-05-26T07:11:41.731Z,13588
2018-05-26T07:12:49.778Z,13900
2018-05-26T07:13:57.871Z,14592
2018-05-26T07:15:06.181Z,25440
2018-05-26T07:16:13.999Z,34048
2018-05-26T07:17:22.191Z,28992
2018-05-26T07:18:30.113Z,20352
2018-05-26T07:19:38.205Z,28096
2018-05-26T07:20:46.585Z,19136
2018-05-26T07:21:54.354Z,19360
2018-05-26T07:23:02.417Z,20160
2018-05-26T07:24:10.477Z,20160
2018-05-26T07:25:18.604Z,20352
2018-05-26T07:26:26.654Z,24320
2018-05-26T07:27:34.703Z,20992
2018-05-26T07:28:42.780Z,17088
2018-05-26T07:29:50.854Z,24064
2018-05-26T07:30:58.930Z,34880
2018-05-26T07:32:07.005Z,43648
2018-05-26T07:33:15.090Z,45600
2018-05-26T07:34:23.155Z,47616
2018-05-26T07:35:31.211Z,51744
2018-05-26T07:36:39.284Z,51584
2018-05-26T07:37:47.382Z,53568
2018-05-26T07:38:55.431Z,55200
2018-05-26T07:40:03.526Z,56512
2018-05-26T07:41:11.601Z,52032
2018-05-26T07:42:19.654Z,51520
2018-05-26T07:43:27.763Z,46656
2018-05-26T07:44:35.826Z,49760
2018-05-26T07:45:43.899Z,48960
2018-05-26T07:46:51.978Z,54496
2018-05-26T07:48:00.037Z,48224
2018-05-26T07:49:08.140Z,47904
2018-05-26T07:50:16.218Z,49856
2018-05-26T07:51:24.279Z,49664
2018-05-26T07:52:32.366Z,47776
2018-05-26T07:53:40.453Z,46208
2018-05-26T07:54:48.521Z,37312
2018-05-26T07:55:56.603Z,44512
2018-05-26T07:57:04.685Z,42720
2018-05-26T07:58:12.768Z,48608
2018-05-26T07:59:20.850Z,44800
2018-05-26T08:00:28.927Z,46912
2018-05-26T08:01:37.002Z,44992
2018-05-26T08:02:45.088Z,40320
2018-05-26T08:03:53.161Z,34944
2018-05-26T08:05:01.254Z,28288
2018-05-26T08:06:09.293Z,31648
2018-05-26T08:07:17.405Z,41568
2018-05-26T08:08:25.477Z,51552
2018-05-26T08:09:33.560Z,50176
2018-05-26T08:10:41.641Z,53440
2018-05-26T08:11:49.692Z,54112
2018-05-26T08:12:57.795Z,59680
2018-05-26T08:14:05.869Z,61216
2018-05-26T08:15:13.971Z,60864
2018-05-26T08:16:22.036Z,57056
2018-05-26T08:17:30.097Z,58560
2018-05-26T08:18:38.206Z,61600
2018-05-26T08:19:46.277Z,61760
2018-05-26T08:20:54.356Z,62880
2018-05-26T08:22:02.443Z,60416
2018-05-26T08:23:10.543Z,58752
2018-05-26T08:24:18.609Z,59808
2018-05-26T08:25:26.683Z,55072
2018-05-26T08:26:34.762Z,51968
2018-05-26T08:27:42.835Z,55360
2018-05-26T08:28:50.918Z,49408
2018-05-26T08:29:58.998Z,47904
2018-05-26T08:31:07.131Z,48032
2018-05-26T08:32:15.173Z,50592
2018-05-26T08:33:23.241Z,49504
2018-05-26T08:34:31.334Z,48416
2018-05-26T08:35:39.385Z,47616
2018-05-26T08:36:47.497Z,56128
2018-05-26T08:37:55.564Z,59808
2018-05-26T08:39:03.650Z,60672
2018-05-26T08:40:11.742Z,62048
2018-05-26T08:41:19.792Z,60256
2018-05-26T08:42:27.881Z,67136
2018-05-26T08:43:35.974Z,65920
2018-05-26T08:44:44.055Z,61696
2018-05-26T08:45:52.140Z,62080
2018-05-26T08:47:00.195Z,65216
2018-05-26T08:48:08.315Z,69728
2018-05-26T08:49:16.385Z,66784
2018-05-26T08:50:24.470Z,68416
2018-05-26T08:51:32.544Z,70080
2018-05-26T08:52:40.632Z,68800
2018-05-26T08:53:48.704Z,65216
2018-05-26T08:54:56.904Z,68992
2018-05-26T08:56:04.877Z,66784
2018-05-26T08:57:12.948Z,66784
2018-05-26T08:58:21.051Z,65280
2018-05-26T08:59:29.120Z,62400
2018-05-26T09:00:37.203Z,69792
2018-05-26T09:01:45.287Z,68416
2018-05-26T09:02:53.373Z,68512
2018-05-26T09:04:01.459Z,71392
2018-05-26T09:05:09.483Z,62272
2018-05-26T09:06:17.613Z,62848
2018-05-26T09:07:25.691Z,63648
2018-05-26T09:08:33.781Z,57344
2018-05-26T09:09:41.860Z,63776
2018-05-26T09:10:49.911Z,63616
2018-05-26T09:11:58.027Z,56480
2018-05-26T09:13:06.117Z,57792
2018-05-26T09:14:14.185Z,64384
2018-05-26T09:15:22.272Z,64736
2018-05-26T09:16:30.320Z,35424
2018-05-26T09:17:38.442Z,19392
2018-05-26T09:18:46.513Z,18496
2018-05-26T09:19:54.593Z,17856
2018-05-26T09:21:02.680Z,17088
2018-05-26T09:22:10.749Z,16292
2018-05-26T09:23:18.832Z,15500
2018-05-26T09:24:26.913Z,14908
2018-05-26T09:25:35.096Z,14404
2018-05-26T09:26:43.076Z,13772
2018-05-26T09:27:51.178Z,13104
2018-05-26T09:28:59.227Z,12440
2018-05-26T09:30:07.320Z,11824
2018-05-26T09:31:15.434Z,11256
2018-05-26T09:32:23.472Z,10768
2018-05-26T09:33:31.539Z,10384
2018-05-26T09:34:39.609Z,10052
2018-05-26T09:35:47.713Z,9748
2018-05-26T09:36:56.188Z,9484
2018-05-26T09:38:03.884Z,9272
2018-05-26T09:39:12.613Z,9128
2018-05-26T09:40:20.427Z,9020
2018-05-26T09:41:28.700Z,8856
2018-05-26T09:42:36.842Z,8584
2018-05-26T09:43:44.975Z,8380
2018-05-26T09:44:52.889Z,8252
2018-05-26T09:46:00.439Z,8104
2018-05-26T09:47:08.494Z,7968
2018-05-26T09:48:16.579Z,7836
2018-05-26T09:49:24.649Z,7728
2018-05-26T09:50:32.732Z,7576
2018-05-26T09:51:40.808Z,7456
2018-05-26T09:52:48.880Z,7468
2018-05-26T09:53:56.955Z,7468
2018-05-26T09:55:05.028Z,7392
2018-05-26T09:56:13.098Z,7296
2018-05-26T09:57:21.185Z,7256
2018-05-26T09:58:29.261Z,7292
2018-05-26T09:59:37.337Z,7388
2018-05-26T10:00:45.408Z,7440
2018-05-26T10:01:53.482Z,7340
2018-05-26T10:03:01.563Z,7124
2018-05-26T10:04:09.600Z,6920
2018-05-26T10:05:17.726Z,6756
2018-05-26T10:06:25.807Z,6636
2018-05-26T10:07:33.863Z,6604
2018-05-26T10:08:41.939Z,6744
2018-05-26T10:09:49.987Z,6928
2018-05-26T10:10:58.087Z,7064
2018-05-26T10:12:06.153Z,7124
2018-05-26T10:13:14.243Z,7072
2018-05-26T10:14:22.309Z,6964
2018-05-26T10:15:30.391Z,6904
2018-05-26T10:16:38.470Z,6880
2018-05-26T10:17:46.524Z,6836
2018-05-26T10:18:54.623Z,6776
2018-05-26T10:20:02.706Z,6652
2018-05-26T10:21:10.766Z,6532
2018-05-26T10:22:18.843Z,6456
2018-05-26T10:23:26.926Z,6388
2018-05-26T10:24:34.994Z,6308
2018-05-26T10:25:43.062Z,6224
2018-05-26T10:26:51.144Z,6140
2018-05-26T10:27:59.199Z,6028
2018-05-26T10:29:07.291Z,5940
2018-05-26T10:30:15.360Z,5892
2018-05-26T10:31:23.450Z,5904
2018-05-26T10:32:31.499Z,5848
2018-05-26T10:33:39.567Z,5804
2018-05-26T10:34:47.665Z,5788
2018-05-26T10:35:55.741Z,5764
2018-05-26T10:37:03.804Z,5756
2018-05-26T10:38:11.901Z,5748
2018-05-26T10:39:19.936Z,5716
2018-05-26T10:40:28.039Z,5676
2018-05-26T10:41:36.103Z,5628
2018-05-26T10:42:44.193Z,5572
2018-05-26T10:43:52.257Z,5516
2018-05-26T10:45:00.320Z,5484
2018-05-26T10:46:08.409Z,5468
2018-05-26T10:47:16.494Z,5476
2018-05-26T10:48:24.551Z,5492
2018-05-26T10:49:32.618Z,5508
2018-05-26T10:50:40.715Z,5516
2018-05-26T10:51:48.776Z,5516
2018-05-26T10:52:56.853Z,5512
2018-05-26T10:54:04.936Z,5488
2018-05-26T10:55:13.015Z,5436
2018-05-26T10:56:21.075Z,5444
2018-05-26T10:57:29.161Z,5404
2018-05-26T10:58:37.243Z,5456
2018-05-26T10:59:45.317Z,5452
2018-05-26T11:00:53.398Z,5436
2018-05-26T11:02:03.723Z,5448
2018-05-26T11:03:09.499Z,5700
2018-05-26T11:04:17.685Z,5972
2018-05-26T11:05:25.687Z,6280
2018-05-26T11:06:33.755Z,6484
2018-05-26T11:07:41.828Z,6548
2018-05-26T11:08:49.874Z,6480
2018-05-26T11:09:57.971Z,6336
2018-05-26T11:11:06.032Z,6136
2018-05-26T11:12:14.127Z,5940
2018-05-26T11:13:22.210Z,5780
2018-05-26T11:14:30.323Z,5708
2018-05-26T11:15:38.374Z,5656
2018-05-26T11:16:46.418Z,5624
2018-05-26T11:17:54.720Z,5608
2018-05-26T11:19:02.581Z,5588
2018-05-26T11:20:10.641Z,5624
2018-05-26T11:21:18.719Z,5648
2018-05-26T11:22:26.790Z,5636
2018-05-26T11:23:34.950Z,5580
2018-05-26T11:24:43.031Z,5516
2018-05-26T11:25:51.010Z,5440
2018-05-26T11:26:59.093Z,5388
2018-05-26T11:28:07.164Z,5332
2018-05-26T11:29:15.241Z,5264
2018-05-26T11:30:23.335Z,5200
2018-05-26T11:31:31.397Z,5128
2018-05-26T11:32:39.444Z,5072
2018-05-26T11:33:47.535Z,5028
2018-05-26T11:34:55.623Z,5000
2018-05-26T11:36:03.696Z,4980
2018-05-26T11:37:11.758Z,4968
2018-05-26T11:38:19.807Z,4968
2018-05-26T11:39:27.912Z,4968
2018-05-26T11:40:35.988Z,4928
2018-05-26T11:41:44.071Z,4888
2018-05-26T11:42:52.150Z,4872
2018-05-26T11:44:00.182Z,4860
2018-05-26T11:45:08.284Z,4864
2018-05-26T11:46:16.358Z,4868
2018-05-26T11:47:24.428Z,4888
2018-05-26T11:48:32.532Z,4896
2018-05-26T11:49:40.586Z,4892
2018-05-26T11:50:48.637Z,4892
2018-05-26T11:51:56.735Z,4896
2018-05-26T11:53:04.817Z,4904
2018-05-26T11:54:12.874Z,4916
2018-05-26T11:55:20.953Z,4932
2018-05-26T11:56:29.031Z,4928
2018-05-26T11:57:37.106Z,4908
2018-05-26T11:58:45.185Z,4880
2018-05-26T11:59:53.248Z,4896
2018-05-26T12:01:01.318Z,4916
2018-05-26T12:02:09.505Z,4892
2018-05-26T12:03:17.486Z,4864
2018-05-26T12:04:25.541Z,4844
2018-05-26T12:05:33.613Z,4840
2018-05-26T12:06:41.706Z,4864
2018-05-26T12:07:50.012Z,4956
2018-05-26T12:08:57.845Z,5104
2018-05-26T12:10:05.922Z,5172
2018-05-26T12:11:14.032Z,5144
2018-05-26T12:12:22.084Z,5148
2018-05-26T12:13:30.121Z,5048
2018-05-26T12:14:38.219Z,5052
2018-05-26T12:15:46.304Z,5052
2018-05-26T12:16:54.371Z,5068
2018-05-26T12:18:02.456Z,5092
2018-05-26T12:19:10.514Z,5096
2018-05-26T12:20:18.577Z,5092
2018-05-26T12:21:26.675Z,5068
2018-05-26T12:22:34.758Z,5056
2018-05-26T12:23:42.814Z,5152
2018-05-26T12:24:50.901Z,5220
2018-05-26T12:25:58.960Z,5216
2018-05-26T12:27:07.022Z,5296
2018-05-26T12:28:15.112Z,5256
2018-05-26T12:29:23.201Z,5380
2018-05-26T12:30:31.272Z,5632
2018-05-26T12:31:39.320Z,5668
2018-05-26T12:32:47.409Z,5608
2018-05-26T12:33:55.487Z,5756
2018-05-26T12:35:03.565Z,5616
2018-05-26T12:36:11.639Z,5448
2018-05-26T12:37:19.699Z,5332
2018-05-26T12:38:27.805Z,5296
2018-05-26T12:39:35.868Z,5236
2018-05-26T12:40:43.950Z,5088
2018-05-26T12:41:52.015Z,5020
2018-05-26T12:43:00.062Z,5084
2018-05-26T12:44:08.176Z,5308
2018-05-26T12:45:16.256Z,5436
2018-05-26T12:46:24.320Z,5644
2018-05-26T12:47:32.396Z,5880
2018-05-26T12:48:40.447Z,6196
2018-05-26T12:49:48.553Z,6336
2018-05-26T12:50:56.604Z,6588
2018-05-26T12:52:04.680Z,6480
2018-05-26T12:53:12.785Z,6256
2018-05-26T12:54:20.825Z,5932
2018-05-26T12:55:28.897Z,5712
2018-05-26T12:56:36.982Z,5720
2018-05-26T12:57:45.062Z,6016
2018-05-26T12:58:53.135Z,6324
2018-05-26T13:00:01.226Z,6520
2018-05-26T13:01:09.277Z,6404
2018-05-26T13:02:17.366Z,6120
2018-05-26T13:03:25.436Z,5560
2018-05-26T13:04:33.518Z,5168
2018-05-26T13:05:41.573Z,4836
2018-05-26T13:06:49.635Z,4540
2018-05-26T13:07:57.748Z,4504
2018-05-26T13:09:05.808Z,4804
2018-05-26T13:10:13.895Z,5024
2018-05-26T13:11:21.970Z,5200
2018-05-26T13:12:30.009Z,5192
2018-05-26T13:13:38.115Z,5212
2018-05-26T13:14:46.186Z,5324
2018-05-26T13:15:54.258Z,5660
2018-05-26T13:17:02.340Z,6188
2018-05-26T13:18:10.398Z,6824
2018-05-26T13:19:18.485Z,7536
2018-05-26T13:20:26.568Z,8280
2018-05-26T13:21:34.638Z,9008
2018-05-26T13:22:42.708Z,9624
2018-05-26T13:23:50.783Z,10152
2018-05-26T13:24:58.857Z,10488
2018-05-26T13:26:06.918Z,10640
2018-05-26T13:27:15.006Z,10660
2018-05-26T13:28:23.077Z,10556
2018-05-26T13:29:31.155Z,10360
2018-05-26T13:30:39.204Z,10064
2018-05-26T13:31:47.310Z,9732
2018-05-26T13:32:55.382Z,9392
2018-05-26T13:34:03.457Z,9012
2018-05-26T13:35:11.540Z,8608
2018-05-26T13:36:19.566Z,8188
2018-05-26T13:37:27.680Z,7768
2018-05-26T13:38:35.739Z,7388
2018-05-26T13:39:43.827Z,7052
2018-05-26T13:40:51.887Z,6768
2018-05-26T13:41:59.949Z,6524
2018-05-26T13:43:08.040Z,6264
2018-05-26T13:44:16.129Z,6000
2018-05-26T13:45:24.195Z,5764
2018-05-26T13:46:32.267Z,5532
2018-05-26T13:47:40.331Z,5332
2018-05-26T13:48:48.414Z,5152
2018-05-26T13:49:56.500Z,4956
2018-05-26T13:51:04.590Z,4784
2018-05-26T13:52:12.664Z,4624
2018-05-26T13:53:20.816Z,4464
2018-05-26T13:54:28.910Z,4296
2018-05-26T13:55:36.851Z,4112
2018-05-26T13:56:44.926Z,3932
2018-05-26T13:57:53.022Z,3776
2018-05-26T13:59:01.072Z,3656
2018-05-26T14:00:09.153Z,3568
2018-05-26T14:01:17.211Z,3508
2018-05-26T14:02:25.306Z,3476
2018-05-26T14:03:33.368Z,3472
2018-05-26T14:04:41.456Z,3504
2018-05-26T14:05:49.505Z,3580
2018-05-26T14:06:57.604Z,3688
2018-05-26T14:08:05.681Z,3836
2018-05-26T14:09:13.750Z,3984
2018-05-26T14:10:21.822Z,4212
2018-05-26T14:11:29.884Z,4452
2018-05-26T14:12:37.967Z,4680
2018-05-26T14:13:46.045Z,4896
2018-05-26T14:14:54.106Z,5100
2018-05-26T14:16:02.203Z,5300
2018-05-26T14:17:10.313Z,5524
2018-05-26T14:18:18.333Z,5796
2018-05-26T14:19:26.398Z,6148
2018-05-26T14:20:34.487Z,6572
2018-05-26T14:21:42.571Z,7084
2018-05-26T14:22:50.637Z,7636
2018-05-26T14:23:58.721Z,8196
2018-05-26T14:25:06.780Z,8712
2018-05-26T14:26:14.853Z,9120
2018-05-26T14:27:22.936Z,9364
2018-05-26T14:28:30.991Z,9440
2018-05-26T14:29:39.083Z,9428
2018-05-26T14:30:47.153Z,9404
2018-05-26T14:31:55.216Z,9420
2018-05-26T14:33:03.297Z,9480
2018-05-26T14:34:11.358Z,9568
2018-05-26T14:35:19.428Z,9684
2018-05-26T14:36:27.531Z,9800
2018-05-26T14:37:35.588Z,9940
2018-05-26T14:38:43.663Z,10136
2018-05-26T14:39:51.739Z,10384
2018-05-26T14:40:59.796Z,10660
2018-05-26T14:42:07.955Z,10952
2018-05-26T14:43:15.956Z,11264
2018-05-26T14:44:24.043Z,11568
2018-05-26T14:45:32.107Z,11864
2018-05-26T14:46:40.164Z,12116
2018-05-26T14:47:48.234Z,12280
2018-05-26T14:48:56.345Z,12336
2018-05-26T14:50:04.432Z,12276
2018-05-26T14:51:12.479Z,12092
2018-05-26T14:52:20.544Z,11820
2018-05-26T14:53:28.619Z,11496
2018-05-26T14:54:36.711Z,11116
2018-05-26T14:55:44.768Z,10672
2018-05-26T14:56:52.845Z,10176
2018-05-26T14:58:00.922Z,9648
2018-05-26T14:59:09.006Z,9140
2018-05-26T15:00:17.079Z,8672
2018-05-26T15:01:25.153Z,8236
2018-05-26T15:02:33.220Z,7800
2018-05-26T15:03:41.305Z,7364
2018-05-26T15:04:49.355Z,6956
2018-05-26T15:05:57.441Z,6616
2018-05-26T15:07:05.516Z,6344
2018-05-26T15:08:13.602Z,6184
2018-05-26T15:09:21.669Z,6132
2018-05-26T15:10:29.729Z,6188
2018-05-26T15:11:37.829Z,6340
2018-05-26T15:12:46.042Z,6604
2018-05-26T15:13:53.980Z,6932
2018-05-26T15:15:02.056Z,7312
2018-05-26T15:16:10.084Z,7712
2018-05-26T15:17:18.181Z,8108
2018-05-26T15:18:26.259Z,8548
2018-05-26T15:19:34.366Z,9044
2018-05-26T15:20:42.419Z,9596